sensor_id;sensor_type;location;lat;lon;timestamp;pressure;altitude;pressure_sealevel;temperature;humidity
49841;BME280;35738;49.890;5.930;2024-01-27T00:00:16;97516.06;;;-1.28;82.31
49841;BME280;35738;49.890;5.930;2024-01-27T00:02:43;97520.94;;;-1.25;82.26
49841;BME280;35738;49.890;5.930;2024-01-27T00:05:10;97511.22;;;-1.23;82.53
49841;BME280;35738;49.890;5.930;2024-01-27T00:07:36;97500.53;;;-1.28;82.75
49841;BME280;35738;49.890;5.930;2024-01-27T00:10:03;97505.72;;;-1.28;82.56
49841;BME280;35738;49.890;5.930;2024-01-27T00:12:30;97509.75;;;-1.25;82.36
49841;BME280;35738;49.890;5.930;2024-01-27T00:14:57;97499.91;;;-1.30;82.57
49841;BME280;35738;49.890;5.930;2024-01-27T00:17:23;97509.13;;;-1.27;82.35
49841;BME280;35738;49.890;5.930;2024-01-27T00:19:51;97497.63;;;-1.41;82.65
49841;BME280;35738;49.890;5.930;2024-01-27T00:22:18;97497.81;;;-1.59;82.85
49841;BME280;35738;49.890;5.930;2024-01-27T00:24:44;97494.56;;;-1.61;82.86
49841;BME280;35738;49.890;5.930;2024-01-27T00:27:11;97502.66;;;-1.56;82.76
49841;BME280;35738;49.890;5.930;2024-01-27T00:29:37;97504.75;;;-1.59;82.39
49841;BME280;35738;49.890;5.930;2024-01-27T00:32:04;97504.13;;;-1.61;83.17
49841;BME280;35738;49.890;5.930;2024-01-27T00:34:31;97511.25;;;-1.63;83.46
49841;BME280;35738;49.890;5.930;2024-01-27T00:36:57;97504.09;;;-1.53;83.57
49841;BME280;35738;49.890;5.930;2024-01-27T00:39:24;97508.66;;;-1.47;82.71
49841;BME280;35738;49.890;5.930;2024-01-27T00:41:51;97515.44;;;-1.46;82.96
49841;BME280;35738;49.890;5.930;2024-01-27T00:44:19;97515.28;;;-1.44;82.97
49841;BME280;35738;49.890;5.930;2024-01-27T00:46:45;97518.00;;;-1.38;82.99
49841;BME280;35738;49.890;5.930;2024-01-27T00:49:11;97512.19;;;-1.40;82.85
49841;BME280;35738;49.890;5.930;2024-01-27T00:51:38;97517.22;;;-1.38;82.60
49841;BME280;35738;49.890;5.930;2024-01-27T00:54:06;97527.72;;;-1.32;82.24
49841;BME280;35738;49.890;5.930;2024-01-27T00:56:32;97528.69;;;-1.33;82.91
49841;BME280;35738;49.890;5.930;2024-01-27T00:58:59;97532.59;;;-1.37;82.00
49841;BME280;35738;49.890;5.930;2024-01-27T01:01:26;97518.66;;;-1.36;82.27
49841;BME280;35738;49.890;5.930;2024-01-27T01:03:52;97523.34;;;-1.39;82.32
49841;BME280;35738;49.890;5.930;2024-01-27T01:06:19;97525.31;;;-1.41;82.44
49841;BME280;35738;49.890;5.930;2024-01-27T01:08:46;97523.19;;;-1.54;82.40
49841;BME280;35738;49.890;5.930;2024-01-27T01:11:13;97520.94;;;-1.57;82.73
49841;BME280;35738;49.890;5.930;2024-01-27T01:13:41;97509.59;;;-1.56;82.93
49841;BME280;35738;49.890;5.930;2024-01-27T01:16:07;97514.81;;;-1.48;82.22
49841;BME280;35738;49.890;5.930;2024-01-27T01:18:34;97516.72;;;-1.50;82.79
49841;BME280;35738;49.890;5.930;2024-01-27T01:21:01;97528.69;;;-1.41;83.02
49841;BME280;35738;49.890;5.930;2024-01-27T01:23:28;97532.91;;;-1.40;82.90
49841;BME280;35738;49.890;5.930;2024-01-27T01:25:54;97534.53;;;-1.39;82.34
49841;BME280;35738;49.890;5.930;2024-01-27T01:28:21;97535.50;;;-1.48;82.70
49841;BME280;35738;49.890;5.930;2024-01-27T01:30:47;97538.25;;;-1.49;82.68
49841;BME280;35738;49.890;5.930;2024-01-27T01:33:16;97540.19;;;-1.60;82.33
49841;BME280;35738;49.890;5.930;2024-01-27T01:35:42;97536.13;;;-1.70;82.38
49841;BME280;35738;49.890;5.930;2024-01-27T01:38:09;97550.03;;;-1.71;82.54
49841;BME280;35738;49.890;5.930;2024-01-27T01:40:35;97545.22;;;-1.66;81.76
49841;BME280;35738;49.890;5.930;2024-01-27T01:43:02;97543.91;;;-1.62;82.62
49841;BME280;35738;49.890;5.930;2024-01-27T01:45:30;97544.88;;;-1.63;82.38
49841;BME280;35738;49.890;5.930;2024-01-27T01:47:57;97544.53;;;-1.68;82.74
49841;BME280;35738;49.890;5.930;2024-01-27T01:50:23;97548.59;;;-1.66;81.85
49841;BME280;35738;49.890;5.930;2024-01-27T01:52:50;97549.72;;;-1.68;82.69
49841;BME280;35738;49.890;5.930;2024-01-27T01:55:19;97545.19;;;-1.74;82.50
49841;BME280;35738;49.890;5.930;2024-01-27T01:57:46;97546.81;;;-1.73;82.22
49841;BME280;35738;49.890;5.930;2024-01-27T02:00:13;97549.72;;;-1.68;82.66
49841;BME280;35738;49.890;5.930;2024-01-27T02:02:43;97541.94;;;-1.68;82.60
49841;BME280;35738;49.890;5.930;2024-01-27T02:05:12;97541.00;;;-1.67;82.93
49841;BME280;35738;49.890;5.930;2024-01-27T02:07:38;97530.81;;;-1.61;82.45
49841;BME280;35738;49.890;5.930;2024-01-27T02:10:07;97532.09;;;-1.57;82.49
49841;BME280;35738;49.890;5.930;2024-01-27T02:12:38;97541.16;;;-1.53;82.40
49841;BME280;35738;49.890;5.930;2024-01-27T02:15:05;97533.22;;;-1.51;82.80
49841;BME280;35738;49.890;5.930;2024-01-27T02:17:35;97523.38;;;-1.47;81.92
49841;BME280;35738;49.890;5.930;2024-01-27T02:20:03;97529.00;;;-1.52;82.06
49841;BME280;35738;49.890;5.930;2024-01-27T02:22:29;97526.59;;;-1.54;81.60
49841;BME280;35738;49.890;5.930;2024-01-27T02:24:56;97530.34;;;-1.48;82.27
49841;BME280;35738;49.890;5.930;2024-01-27T02:27:22;97525.13;;;-1.40;82.41
49841;BME280;35738;49.890;5.930;2024-01-27T02:29:49;97536.94;;;-1.37;81.32
49841;BME280;35738;49.890;5.930;2024-01-27T02:32:16;97538.09;;;-1.40;81.67
49841;BME280;35738;49.890;5.930;2024-01-27T02:34:42;97535.66;;;-1.41;81.42
49841;BME280;35738;49.890;5.930;2024-01-27T02:37:09;97536.81;;;-1.44;81.83
49841;BME280;35738;49.890;5.930;2024-01-27T02:39:36;97538.75;;;-1.46;82.13
49841;BME280;35738;49.890;5.930;2024-01-27T02:42:03;97541.34;;;-1.46;81.98
49841;BME280;35738;49.890;5.930;2024-01-27T02:44:29;97543.94;;;-1.46;82.05
49841;BME280;35738;49.890;5.930;2024-01-27T02:46:56;97546.50;;;-1.46;81.42
49841;BME280;35738;49.890;5.930;2024-01-27T02:49:22;97554.59;;;-1.57;81.93
49841;BME280;35738;49.890;5.930;2024-01-27T02:51:49;97560.75;;;-1.66;82.57
49841;BME280;35738;49.890;5.930;2024-01-27T02:54:15;97563.00;;;-1.63;82.29
49841;BME280;35738;49.890;5.930;2024-01-27T02:56:42;97554.88;;;-1.68;82.40
49841;BME280;35738;49.890;5.930;2024-01-27T02:59:08;97554.88;;;-1.68;82.56
49841;BME280;35738;49.890;5.930;2024-01-27T03:01:35;97553.75;;;-1.74;83.02
49841;BME280;35738;49.890;5.930;2024-01-27T03:04:01;97548.75;;;-1.75;82.60
49841;BME280;35738;49.890;5.930;2024-01-27T03:06:28;97546.81;;;-1.73;82.47
49841;BME280;35738;49.890;5.930;2024-01-27T03:08:55;97548.75;;;-1.59;82.61
49841;BME280;35738;49.890;5.930;2024-01-27T03:11:21;97545.53;;;-1.45;81.83
49841;BME280;35738;49.890;5.930;2024-01-27T03:13:48;97546.19;;;-1.43;82.44
49841;BME280;35738;49.890;5.930;2024-01-27T03:16:15;97543.59;;;-1.35;81.20
49841;BME280;35738;49.890;5.930;2024-01-27T03:18:43;97531.28;;;-1.41;81.37
49841;BME280;35738;49.890;5.930;2024-01-27T03:21:10;97533.88;;;-1.49;81.29
49841;BME280;35738;49.890;5.930;2024-01-27T03:23:36;97530.97;;;-1.54;82.00
49841;BME280;35738;49.890;5.930;2024-01-27T03:26:03;97544.72;;;-1.62;81.73
49841;BME280;35738;49.890;5.930;2024-01-27T03:28:30;97532.28;;;-1.66;81.73
49841;BME280;35738;49.890;5.930;2024-01-27T03:30:57;97538.09;;;-1.64;82.19
49841;BME280;35738;49.890;5.930;2024-01-27T03:33:26;97533.41;;;-1.61;81.45
49841;BME280;35738;49.890;5.930;2024-01-27T03:35:55;97539.03;;;-1.49;81.34
49841;BME280;35738;49.890;5.930;2024-01-27T03:38:22;97545.34;;;-1.52;81.52
49841;BME280;35738;49.890;5.930;2024-01-27T03:40:49;97535.81;;;-1.51;81.18
49841;BME280;35738;49.890;5.930;2024-01-27T03:43:16;97537.44;;;-1.50;80.71
49841;BME280;35738;49.890;5.930;2024-01-27T03:45:42;97531.63;;;-1.44;81.06
49841;BME280;35738;49.890;5.930;2024-01-27T03:48:09;97533.88;;;-1.33;80.18
49841;BME280;35738;49.890;5.930;2024-01-27T03:50:36;97537.28;;;-1.40;80.42
49841;BME280;35738;49.890;5.930;2024-01-27T03:53:02;97547.47;;;-1.39;80.34
49841;BME280;35738;49.890;5.930;2024-01-27T03:55:29;97542.47;;;-1.40;80.31
49841;BME280;35738;49.890;5.930;2024-01-27T03:57:55;97552.16;;;-1.34;79.77
49841;BME280;35738;49.890;5.930;2024-01-27T04:00:22;97549.75;;;-1.28;79.92
49841;BME280;35738;49.890;5.930;2024-01-27T04:02:49;97555.56;;;-1.34;79.37
49841;BME280;35738;49.890;5.930;2024-01-27T04:05:15;97551.19;;;-1.41;79.59
49841;BME280;35738;49.890;5.930;2024-01-27T04:07:42;97558.81;;;-1.40;79.84
49841;BME280;35738;49.890;5.930;2024-01-27T04:10:09;97558.78;;;-1.56;80.34
49841;BME280;35738;49.890;5.930;2024-01-27T04:12:36;97559.09;;;-1.75;80.52
49841;BME280;35738;49.890;5.930;2024-01-27T04:15:03;97555.50;;;-1.91;81.18
49841;BME280;35738;49.890;5.930;2024-01-27T04:17:29;97556.28;;;-2.06;80.42
49841;BME280;35738;49.890;5.930;2024-01-27T04:19:56;97548.34;;;-2.13;80.83
49841;BME280;35738;49.890;5.930;2024-01-27T04:22:22;97558.38;;;-2.10;82.04
49841;BME280;35738;49.890;5.930;2024-01-27T04:24:49;97547.88;;;-2.08;81.92
49841;BME280;35738;49.890;5.930;2024-01-27T04:27:15;97545.81;;;-1.97;81.89
49841;BME280;35738;49.890;5.930;2024-01-27T04:29:42;97542.94;;;-1.86;81.58
49841;BME280;35738;49.890;5.930;2024-01-27T04:32:09;97553.13;;;-1.84;82.35
49841;BME280;35738;49.890;5.930;2024-01-27T04:34:35;97562.00;;;-1.78;82.00
49841;BME280;35738;49.890;5.930;2024-01-27T04:37:02;97551.94;;;-1.90;81.99
49841;BME280;35738;49.890;5.930;2024-01-27T04:39:28;97566.66;;;-1.90;82.20
49841;BME280;35738;49.890;5.930;2024-01-27T04:41:55;97553.25;;;-1.94;81.68
49841;BME280;35738;49.890;5.930;2024-01-27T04:44:22;97565.03;;;-1.99;81.65
49841;BME280;35738;49.890;5.930;2024-01-27T04:46:48;97568.13;;;-1.96;81.24
49841;BME280;35738;49.890;5.930;2024-01-27T04:49:15;97560.19;;;-1.94;82.51
49841;BME280;35738;49.890;5.930;2024-01-27T04:51:42;97559.72;;;-1.98;82.32
49841;BME280;35738;49.890;5.930;2024-01-27T04:54:09;97563.88;;;-2.05;82.25
49841;BME280;35738;49.890;5.930;2024-01-27T04:56:36;97572.31;;;-2.03;82.41
49841;BME280;35738;49.890;5.930;2024-01-27T04:59:03;97575.56;;;-2.01;82.19
49841;BME280;35738;49.890;5.930;2024-01-27T05:01:29;97578.78;;;-1.99;82.33
49841;BME280;35738;49.890;5.930;2024-01-27T05:03:56;97590.59;;;-2.04;82.62
49841;BME280;35738;49.890;5.930;2024-01-27T05:06:22;97581.81;;;-2.11;82.27
49841;BME280;35738;49.890;5.930;2024-01-27T05:08:49;97590.38;;;-2.19;82.65
49841;BME280;35738;49.890;5.930;2024-01-27T05:11:25;97596.84;;;-2.15;82.86
49841;BME280;35738;49.890;5.930;2024-01-27T05:13:52;97596.34;;;-2.19;83.03
49841;BME280;35738;49.890;5.930;2024-01-27T05:16:18;97600.06;;;-2.21;83.30
49841;BME280;35738;49.890;5.930;2024-01-27T05:18:44;97594.28;;;-2.07;82.57
49841;BME280;35738;49.890;5.930;2024-01-27T05:21:11;97591.03;;;-2.09;83.18
49841;BME280;35738;49.890;5.930;2024-01-27T05:23:38;97579.38;;;-2.13;82.76
49841;BME280;35738;49.890;5.930;2024-01-27T05:26:05;97587.53;;;-2.00;82.77
49841;BME280;35738;49.890;5.930;2024-01-27T05:28:32;97585.84;;;-2.09;82.33
49841;BME280;35738;49.890;5.930;2024-01-27T05:30:59;97589.41;;;-2.18;82.61
49841;BME280;35738;49.890;5.930;2024-01-27T05:33:26;97585.84;;;-2.17;81.76
49841;BME280;35738;49.890;5.930;2024-01-27T05:35:52;97596.78;;;-2.23;81.56
49841;BME280;35738;49.890;5.930;2024-01-27T05:38:19;97593.28;;;-2.22;81.70
49841;BME280;35738;49.890;5.930;2024-01-27T05:40:45;97595.84;;;-2.22;81.61
49841;BME280;35738;49.890;5.930;2024-01-27T05:43:12;97585.69;;;-2.16;81.40
49841;BME280;35738;49.890;5.930;2024-01-27T05:45:38;97581.28;;;-2.23;81.59
49841;BME280;35738;49.890;5.930;2024-01-27T05:48:05;97575.59;;;-2.27;80.88
49841;BME280;35738;49.890;5.930;2024-01-27T05:50:32;97575.97;;;-2.22;80.94
49841;BME280;35738;49.890;5.930;2024-01-27T05:53:00;97579.06;;;-2.18;80.71
49841;BME280;35738;49.890;5.930;2024-01-27T05:55:27;97565.75;;;-2.23;81.12
49841;BME280;35738;49.890;5.930;2024-01-27T05:57:53;97575.00;;;-2.21;81.13
49841;BME280;35738;49.890;5.930;2024-01-27T06:00:21;97577.75;;;-2.22;80.45
49841;BME280;35738;49.890;5.930;2024-01-27T06:02:48;97577.75;;;-2.22;81.46
49841;BME280;35738;49.890;5.930;2024-01-27T06:05:15;97586.97;;;-2.20;80.28
49841;BME280;35738;49.890;5.930;2024-01-27T06:07:42;97583.22;;;-2.25;80.54
49841;BME280;35738;49.890;5.930;2024-01-27T06:10:09;97586.16;;;-2.20;80.76
49841;BME280;35738;49.890;5.930;2024-01-27T06:12:37;97581.16;;;-2.22;80.71
49841;BME280;35738;49.890;5.930;2024-01-27T06:15:04;97585.19;;;-2.19;79.88
49841;BME280;35738;49.890;5.930;2024-01-27T06:17:32;97577.28;;;-2.09;79.78
49841;BME280;35738;49.890;5.930;2024-01-27T06:19:59;97585.84;;;-2.09;81.14
49841;BME280;35738;49.890;5.930;2024-01-27T06:22:25;97580.34;;;-2.14;80.37
49841;BME280;35738;49.890;5.930;2024-01-27T06:24:52;97584.50;;;-1.71;80.51
49841;BME280;35738;49.890;5.930;2024-01-27T06:27:18;97574.25;;;-1.89;79.99
49841;BME280;35738;49.890;5.930;2024-01-27T06:29:45;97589.13;;;-1.99;79.79
49841;BME280;35738;49.890;5.930;2024-01-27T06:32:11;97594.59;;;-2.10;80.77
49841;BME280;35738;49.890;5.930;2024-01-27T06:34:39;97594.88;;;-2.21;80.92
49841;BME280;35738;49.890;5.930;2024-01-27T06:37:05;97592.56;;;-2.32;81.07
49841;BME280;35738;49.890;5.930;2024-01-27T06:39:32;97600.78;;;-2.37;80.75
49841;BME280;35738;49.890;5.930;2024-01-27T06:41:58;97603.00;;;-2.42;80.52
49841;BME280;35738;49.890;5.930;2024-01-27T06:44:25;97604.78;;;-2.42;80.87
49841;BME280;35738;49.890;5.930;2024-01-27T06:46:52;97594.81;;;-2.37;81.51
49841;BME280;35738;49.890;5.930;2024-01-27T06:49:18;97584.47;;;-2.37;80.95
49841;BME280;35738;49.890;5.930;2024-01-27T06:51:46;97591.88;;;-2.42;80.90
49841;BME280;35738;49.890;5.930;2024-01-27T06:54:12;97592.81;;;-2.44;80.68
49841;BME280;35738;49.890;5.930;2024-01-27T06:56:39;97591.84;;;-2.51;81.10
49841;BME280;35738;49.890;5.930;2024-01-27T06:59:05;97577.31;;;-2.44;80.94
49841;BME280;35738;49.890;5.930;2024-01-27T07:01:32;97576.66;;;-2.46;81.04
49841;BME280;35738;49.890;5.930;2024-01-27T07:03:58;97577.94;;;-2.50;81.34
49841;BME280;35738;49.890;5.930;2024-01-27T07:06:25;97583.13;;;-2.50;81.74
49841;BME280;35738;49.890;5.930;2024-01-27T07:08:52;97605.41;;;-2.49;81.53
49841;BME280;35738;49.890;5.930;2024-01-27T07:11:18;97615.06;;;-2.25;81.16
49841;BME280;35738;49.890;5.930;2024-01-27T07:13:45;97605.22;;;-2.21;82.17
49841;BME280;35738;49.890;5.930;2024-01-27T07:16:11;97604.91;;;-2.18;81.93
49841;BME280;35738;49.890;5.930;2024-01-27T07:18:38;97614.50;;;-2.02;82.25
49841;BME280;35738;49.890;5.930;2024-01-27T07:21:05;97624.06;;;-2.03;81.57
49841;BME280;35738;49.890;5.930;2024-01-27T07:23:34;97629.56;;;-1.98;81.46
49841;BME280;35738;49.890;5.930;2024-01-27T07:26:02;97614.06;;;-1.90;81.48
49841;BME280;35738;49.890;5.930;2024-01-27T07:28:30;97608.91;;;-1.73;81.39
49841;BME280;35738;49.890;5.930;2024-01-27T07:30:56;97604.75;;;-1.66;81.30
49841;BME280;35738;49.890;5.930;2024-01-27T07:33:23;97615.63;;;-1.46;81.21
49841;BME280;35738;49.890;5.930;2024-01-27T07:35:49;97633.25;;;-1.42;80.81
49841;BME280;35738;49.890;5.930;2024-01-27T07:38:16;97625.78;;;-1.53;80.77
49841;BME280;35738;49.890;5.930;2024-01-27T07:40:42;97634.69;;;-1.56;79.91
49841;BME280;35738;49.890;5.930;2024-01-27T07:43:09;97635.16;;;-1.60;80.34
49841;BME280;35738;49.890;5.930;2024-01-27T07:45:35;97633.22;;;-1.58;79.45
49841;BME280;35738;49.890;5.930;2024-01-27T07:48:02;97617.03;;;-1.60;80.17
49841;BME280;35738;49.890;5.930;2024-01-27T07:50:29;97618.19;;;-1.55;80.29
49841;BME280;35738;49.890;5.930;2024-01-27T07:52:56;97612.53;;;-1.42;80.39
49841;BME280;35738;49.890;5.930;2024-01-27T07:55:22;97606.41;;;-1.25;80.79
49841;BME280;35738;49.890;5.930;2024-01-27T07:57:49;97602.00;;;-1.00;80.04
49841;BME280;35738;49.890;5.930;2024-01-27T08:00:16;97612.22;;;-0.98;79.84
49841;BME280;35738;49.890;5.930;2024-01-27T08:02:43;97597.78;;;-0.84;79.61
49841;BME280;35738;49.890;5.930;2024-01-27T08:05:09;97594.19;;;-0.75;79.79
49841;BME280;35738;49.890;5.930;2024-01-27T08:07:35;97608.63;;;-0.73;79.19
49841;BME280;35738;49.890;5.930;2024-01-27T08:10:02;97620.28;;;-0.69;78.97
49841;BME280;35738;49.890;5.930;2024-01-27T08:12:30;97621.88;;;-0.59;78.49
49841;BME280;35738;49.890;5.930;2024-01-27T08:14:57;97613.47;;;-0.53;78.61
49841;BME280;35738;49.890;5.930;2024-01-27T08:17:23;97609.56;;;-0.49;78.23
49841;BME280;35738;49.890;5.930;2024-01-27T08:19:51;97624.13;;;-0.48;78.20
49841;BME280;35738;49.890;5.930;2024-01-27T08:22:18;97622.81;;;-0.44;78.32
49841;BME280;35738;49.890;5.930;2024-01-27T08:24:45;97622.47;;;-0.41;77.87
49841;BME280;35738;49.890;5.930;2024-01-27T08:27:11;97633.19;;;-0.36;78.40
49841;BME280;35738;49.890;5.930;2024-01-27T08:29:38;97637.41;;;-0.35;77.82
49841;BME280;35738;49.890;5.930;2024-01-27T08:32:05;97625.72;;;-0.31;77.29
49841;BME280;35738;49.890;5.930;2024-01-27T08:34:32;97621.50;;;-0.32;77.26
49841;BME280;35738;49.890;5.930;2024-01-27T08:37:00;97627.34;;;-0.30;77.78
49841;BME280;35738;49.890;5.930;2024-01-27T08:39:28;97613.22;;;-0.27;77.48
49841;BME280;35738;49.890;5.930;2024-01-27T08:41:54;97618.88;;;-0.24;77.02
49841;BME280;35738;49.890;5.930;2024-01-27T08:44:21;97617.41;;;-0.18;77.83
49841;BME280;35738;49.890;5.930;2024-01-27T08:46:47;97612.34;;;-0.12;78.38
49841;BME280;35738;49.890;5.930;2024-01-27T08:49:14;97626.44;;;-0.06;77.73
49841;BME280;35738;49.890;5.930;2024-01-27T08:51:40;97624.94;;;-0.01;76.86
49841;BME280;35738;49.890;5.930;2024-01-27T08:54:07;97627.78;;;0.21;77.16
49841;BME280;35738;49.890;5.930;2024-01-27T08:56:33;97634.50;;;0.38;76.63
49841;BME280;35738;49.890;5.930;2024-01-27T08:59:05;97628.16;;;0.41;76.69
49841;BME280;35738;49.890;5.930;2024-01-27T09:01:31;97628.50;;;0.38;76.02
49841;BME280;35738;49.890;5.930;2024-01-27T09:03:58;97619.03;;;0.45;76.70
49841;BME280;35738;49.890;5.930;2024-01-27T09:06:24;97619.13;;;0.59;76.37
49841;BME280;35738;49.890;5.930;2024-01-27T09:08:55;97622.06;;;0.79;76.55
49841;BME280;35738;49.890;5.930;2024-01-27T09:11:22;97622.97;;;0.86;75.24
49841;BME280;35738;49.890;5.930;2024-01-27T09:13:50;97618.13;;;0.83;75.14
49841;BME280;35738;49.890;5.930;2024-01-27T09:16:18;97615.00;;;0.88;75.10
49841;BME280;35738;49.890;5.930;2024-01-27T09:18:44;97622.50;;;1.06;75.61
49841;BME280;35738;49.890;5.930;2024-01-27T09:21:11;97624.91;;;1.07;74.87
49841;BME280;35738;49.890;5.930;2024-01-27T09:23:38;97626.16;;;1.11;74.46
49841;BME280;35738;49.890;5.930;2024-01-27T09:26:05;97612.91;;;1.06;73.82
49841;BME280;35738;49.890;5.930;2024-01-27T09:28:31;97601.88;;;1.04;73.97
49841;BME280;35738;49.890;5.930;2024-01-27T09:30:58;97608.94;;;1.10;73.78
49841;BME280;35738;49.890;5.930;2024-01-27T09:33:24;97615.78;;;1.11;74.73
49841;BME280;35738;49.890;5.930;2024-01-27T09:35:51;97619.13;;;1.20;73.34
49841;BME280;35738;49.890;5.930;2024-01-27T09:38:18;97621.63;;;1.28;73.96
49841;BME280;35738;49.890;5.930;2024-01-27T09:40:44;97609.00;;;1.25;72.49
49841;BME280;35738;49.890;5.930;2024-01-27T09:43:13;97603.97;;;1.24;72.94
49841;BME280;35738;49.890;5.930;2024-01-27T09:45:40;97613.19;;;1.26;72.99
49841;BME280;35738;49.890;5.930;2024-01-27T09:48:10;97615.00;;;1.26;72.33
49841;BME280;35738;49.890;5.930;2024-01-27T09:50:39;97629.97;;;1.24;71.66
49841;BME280;35738;49.890;5.930;2024-01-27T09:53:07;97627.00;;;1.27;73.00
49841;BME280;35738;49.890;5.930;2024-01-27T09:55:35;97628.56;;;1.36;72.47
49841;BME280;35738;49.890;5.930;2024-01-27T09:58:02;97634.66;;;1.43;72.13
49841;BME280;35738;49.890;5.930;2024-01-27T10:00:29;97634.44;;;1.52;70.68
49841;BME280;35738;49.890;5.930;2024-01-27T10:02:56;97632.09;;;1.87;71.25
49841;BME280;35738;49.890;5.930;2024-01-27T10:05:23;97627.41;;;1.97;70.20
49841;BME280;35738;49.890;5.930;2024-01-27T10:07:50;97621.22;;;2.13;70.07
49841;BME280;35738;49.890;5.930;2024-01-27T10:10:20;97623.81;;;2.13;70.29
49841;BME280;35738;49.890;5.930;2024-01-27T10:12:47;97628.03;;;2.14;69.65
49841;BME280;35738;49.890;5.930;2024-01-27T10:15:21;97624.16;;;2.25;69.79
49841;BME280;35738;49.890;5.930;2024-01-27T10:17:48;97621.81;;;2.30;69.13
49841;BME280;35738;49.890;5.930;2024-01-27T10:20:15;97627.81;;;2.30;69.46
49841;BME280;35738;49.890;5.930;2024-01-27T10:22:45;97629.06;;;2.34;67.96
49841;BME280;35738;49.890;5.930;2024-01-27T10:25:12;97622.97;;;2.27;68.40
49841;BME280;35738;49.890;5.930;2024-01-27T10:27:39;97622.06;;;2.20;68.78
49841;BME280;35738;49.890;5.930;2024-01-27T10:30:06;97622.81;;;2.14;68.57
49841;BME280;35738;49.890;5.930;2024-01-27T10:32:33;97608.56;;;2.10;69.11
49841;BME280;35738;49.890;5.930;2024-01-27T10:35:05;97610.66;;;2.21;69.77
49841;BME280;35738;49.890;5.930;2024-01-27T10:37:31;97613.06;;;2.37;69.23
49841;BME280;35738;49.890;5.930;2024-01-27T10:40:03;97612.69;;;2.40;68.25
49841;BME280;35738;49.890;5.930;2024-01-27T10:42:30;97600.56;;;2.48;66.71
49841;BME280;35738;49.890;5.930;2024-01-27T10:44:58;97602.78;;;2.51;65.95
49841;BME280;35738;49.890;5.930;2024-01-27T10:47:27;97602.97;;;2.49;65.28
49841;BME280;35738;49.890;5.930;2024-01-27T10:49:56;97601.97;;;2.50;66.06
49841;BME280;35738;49.890;5.930;2024-01-27T10:52:25;97596.44;;;2.60;66.83
49841;BME280;35738;49.890;5.930;2024-01-27T10:54:59;97606.16;;;2.66;65.98
49841;BME280;35738;49.890;5.930;2024-01-27T10:57:29;97606.53;;;2.63;65.74
49841;BME280;35738;49.890;5.930;2024-01-27T11:00:00;97603.53;;;2.66;66.50
49841;BME280;35738;49.890;5.930;2024-01-27T11:02:32;97601.22;;;2.78;66.54
49841;BME280;35738;49.890;5.930;2024-01-27T11:05:04;97609.63;;;2.73;65.36
49841;BME280;35738;49.890;5.930;2024-01-27T11:07:34;97607.56;;;2.90;66.05
49841;BME280;35738;49.890;5.930;2024-01-27T11:10:01;97599.56;;;2.91;65.48
49841;BME280;35738;49.890;5.930;2024-01-27T11:12:28;97605.19;;;2.95;66.17
49841;BME280;35738;49.890;5.930;2024-01-27T11:14:56;97600.59;;;2.97;65.21
49841;BME280;35738;49.890;5.930;2024-01-27T11:17:25;97596.50;;;3.09;66.28
49841;BME280;35738;49.890;5.930;2024-01-27T11:19:55;97595.13;;;3.13;65.00
49841;BME280;35738;49.890;5.930;2024-01-27T11:22:28;97599.34;;;3.14;65.52
49841;BME280;35738;49.890;5.930;2024-01-27T11:27:43;97594.84;;;3.01;63.97
49841;BME280;35738;49.890;5.930;2024-01-27T11:30:30;97604.88;;;3.04;65.88
49841;BME280;35738;49.890;5.930;2024-01-27T11:33:03;97599.69;;;3.04;66.28
49841;BME280;35738;49.890;5.930;2024-01-27T11:35:31;97598.09;;;3.10;65.95
49841;BME280;35738;49.890;5.930;2024-01-27T11:38:00;97606.50;;;3.06;63.24
49841;BME280;35738;49.890;5.930;2024-01-27T11:40:27;97609.59;;;2.94;62.63
49841;BME280;35738;49.890;5.930;2024-01-27T11:42:58;97605.69;;;3.05;62.17
49841;BME280;35738;49.890;5.930;2024-01-27T11:45:26;97607.47;;;3.26;64.40
49841;BME280;35738;49.890;5.930;2024-01-27T11:47:55;97606.66;;;3.25;63.39
49841;BME280;35738;49.890;5.930;2024-01-27T11:50:22;97603.09;;;3.33;63.66
49841;BME280;35738;49.890;5.930;2024-01-27T11:52:49;97603.56;;;3.43;62.96
49841;BME280;35738;49.890;5.930;2024-01-27T11:55:16;97598.75;;;3.40;63.25
49841;BME280;35738;49.890;5.930;2024-01-27T11:57:42;97588.69;;;3.37;62.73
49841;BME280;35738;49.890;5.930;2024-01-27T12:00:09;97590.00;;;3.54;64.48
49841;BME280;35738;49.890;5.930;2024-01-27T12:02:38;97584.44;;;3.71;63.75
49841;BME280;35738;49.890;5.930;2024-01-27T12:05:05;97573.19;;;3.63;62.17
49841;BME280;35738;49.890;5.930;2024-01-27T12:07:33;97581.78;;;3.57;62.53
49841;BME280;35738;49.890;5.930;2024-01-27T12:09:59;97583.84;;;3.69;61.89
49841;BME280;35738;49.890;5.930;2024-01-27T12:12:26;97576.41;;;3.65;61.29
49841;BME280;35738;49.890;5.930;2024-01-27T12:14:53;97572.72;;;3.53;61.74
49841;BME280;35738;49.890;5.930;2024-01-27T12:17:22;97568.88;;;3.49;60.67
49841;BME280;35738;49.890;5.930;2024-01-27T12:19:50;97572.34;;;3.56;61.65
49841;BME280;35738;49.890;5.930;2024-01-27T12:22:24;97571.56;;;3.62;61.70
49841;BME280;35738;49.890;5.930;2024-01-27T12:25:11;97578.00;;;3.67;60.73
49841;BME280;35738;49.890;5.930;2024-01-27T12:27:40;97571.59;;;3.69;60.51
49841;BME280;35738;49.890;5.930;2024-01-27T12:30:08;97570.03;;;3.75;61.02
49841;BME280;35738;49.890;5.930;2024-01-27T12:32:35;97570.56;;;3.63;60.24
49841;BME280;35738;49.890;5.930;2024-01-27T12:35:05;97555.13;;;3.69;59.44
49841;BME280;35738;49.890;5.930;2024-01-27T12:37:34;97556.53;;;3.71;61.07
49841;BME280;35738;49.890;5.930;2024-01-27T12:40:00;97557.81;;;3.47;61.13
49841;BME280;35738;49.890;5.930;2024-01-27T12:42:27;97561.41;;;3.40;60.52
49841;BME280;35738;49.890;5.930;2024-01-27T12:44:53;97563.81;;;3.41;59.33
49841;BME280;35738;49.890;5.930;2024-01-27T12:47:20;97555.38;;;3.39;59.98
49841;BME280;35738;49.890;5.930;2024-01-27T12:49:46;97563.81;;;3.41;59.98
49841;BME280;35738;49.890;5.930;2024-01-27T12:52:13;97560.19;;;3.42;60.24
49841;BME280;35738;49.890;5.930;2024-01-27T12:54:40;97553.19;;;3.43;61.44
49841;BME280;35738;49.890;5.930;2024-01-27T12:57:07;97553.47;;;3.54;61.09
49841;BME280;35738;49.890;5.930;2024-01-27T12:59:35;97556.22;;;3.46;59.57
49841;BME280;35738;49.890;5.930;2024-01-27T13:02:01;97547.38;;;3.47;60.93
49841;BME280;35738;49.890;5.930;2024-01-27T13:04:28;97553.47;;;3.54;61.38